Time;durP1;ratioP1;P1;durP2;ratioP2;P2;SDS_P1;SDS_P2;PMS_P1;PMS_P2;Temp;Humidity;BMP_temperature;BMP_pressure;BME280_temperature;BME280_humidity;BME280_pressure;Samples;Min_cycle;Max_cycle;Signal;HPM_P1;HPM_P2
2022/10/08 00:01:43;;;;;;;11.65;0.80;;;23.10;40.90;;;;;;5053525;28;20421;-57
2022/10/08 00:04:12;;;;;;;8.82;0.52;;;23.10;41.20;;;;;;5048918;28;20039;-58
2022/10/08 00:06:39;;;;;;;4.47;0.65;;;23.10;41.30;;;;;;5049625;28;20036;-55
2022/10/08 00:09:07;;;;;;;2.25;0.30;;;23.10;41.40;;;;;;5048987;28;20028;-56
2022/10/08 00:11:36;;;;;;;7.95;0.43;;;23.10;41.50;;;;;;5050133;28;20049;-55
2022/10/08 00:14:05;;;;;;;3.90;0.75;;;23.10;41.70;;;;;;5051151;28;20035;-55
2022/10/08 00:16:34;;;;;;;6.00;0.90;;;23.20;41.70;;;;;;5048854;28;20139;-57
2022/10/08 00:19:02;;;;;;;3.50;0.43;;;23.10;41.70;;;;;;5050159;28;20723;-55
2022/10/08 00:21:31;;;;;;;5.00;1.05;;;23.10;41.80;;;;;;5047632;28;20041;-54
2022/10/08 00:24:02;;;;;;;3.25;0.47;;;23.10;41.80;;;;;;5039823;28;20041;-56
2022/10/08 00:26:32;;;;;;;1.45;0.20;;;23.20;41.90;;;;;;5039282;28;20719;-55
2022/10/08 00:29:00;;;;;;;6.93;0.52;;;23.20;41.90;;;;;;5049444;28;20087;-56
2022/10/08 00:31:31;;;;;;;2.90;0.45;;;23.10;41.90;;;;;;5049112;28;20481;-53
2022/10/08 00:34:01;;;;;;;0.98;0.40;;;23.20;42.00;;;;;;5049204;28;20116;-54
2022/10/08 00:36:31;;;;;;;2.92;0.30;;;23.10;42.00;;;;;;5052718;28;20040;-55
2022/10/08 00:38:59;;;;;;;6.05;0.25;;;23.10;42.00;;;;;;5060088;28;20041;-55
2022/10/08 00:41:27;;;;;;;7.68;0.40;;;23.10;42.10;;;;;;5049257;28;20123;-54
2022/10/08 00:43:56;;;;;;;4.45;0.63;;;23.10;42.10;;;;;;5049222;28;20041;-55
2022/10/08 00:46:30;;;;;;;6.05;0.55;;;23.10;42.20;;;;;;5066693;28;20523;-57
2022/10/08 00:49:02;;;;;;;1.40;0.10;;;23.10;42.30;;;;;;5055657;28;20045;-57
2022/10/08 00:51:31;;;;;;;1.50;0.30;;;23.10;42.30;;;;;;5041614;28;20059;-53
2022/10/08 00:53:59;;;;;;;3.25;0.40;;;23.10;42.40;;;;;;5052127;28;20518;-55
2022/10/08 00:56:27;;;;;;;0.57;0.43;;;23.10;42.50;;;;;;5054031;28;20040;-56
2022/10/08 00:58:54;;;;;;;2.65;0.40;;;23.10;43.10;;;;;;5054514;28;20041;-56
2022/10/08 01:01:21;;;;;;;2.28;0.20;;;23.10;42.50;;;;;;5067740;28;20048;-57
2022/10/08 01:03:50;;;;;;;5.22;0.70;;;23.10;42.60;;;;;;5061256;28;20494;-56
2022/10/08 01:06:26;;;;;;;1.45;0.70;;;23.10;42.70;;;;;;5041920;28;20049;-56
2022/10/08 01:08:59;;;;;;;1.20;0.17;;;23.10;42.80;;;;;;5048613;28;20064;-55
2022/10/08 01:11:38;;;;;;;2.05;0.52;;;23.10;42.90;;;;;;5048443;28;20041;-54
2022/10/08 01:14:19;;;;;;;1.33;0.50;;;23.10;43.00;;;;;;5048409;28;20040;-55
2022/10/08 01:16:55;;;;;;;1.83;0.20;;;23.10;43.00;;;;;;5060210;28;20048;-56
2022/10/08 01:19:43;;;;;;;2.50;0.28;;;23.10;43.10;;;;;;5065027;28;20045;-54
2022/10/08 01:22:24;;;;;;;2.55;0.10;;;23.00;43.10;;;;;;5044695;28;20687;-55
2022/10/08 01:27:43;;;;;;;1.60;0.20;;;23.00;43.40;;;;;;5060002;28;20081;-56
2022/10/08 01:30:13;;;;;;;0.40;0.20;;;23.00;43.50;;;;;;5063971;28;20678;-57
2022/10/08 01:32:47;;;;;;;0.68;0.10;;;23.00;43.60;;;;;;5067304;28;20509;-56
2022/10/08 01:35:20;;;;;;;1.55;0.30;;;23.00;43.50;;;;;;5048726;28;20037;-57
2022/10/08 01:37:48;;;;;;;2.53;0.10;;;23.00;43.50;;;;;;5060670;28;20045;-57
2022/10/08 01:40:19;;;;;;;0.40;0.10;;;23.00;43.60;;;;;;5057839;28;20170;-56
2022/10/08 01:42:52;;;;;;;0.85;0.13;;;23.00;43.60;;;;;;5045590;28;20124;-57
2022/10/08 01:45:24;;;;;;;2.38;0.10;;;23.00;43.60;;;;;;5063306;28;20044;-56
2022/10/08 01:47:54;;;;;;;1.15;0.47;;;23.00;43.70;;;;;;5063975;28;20041;-57
2022/10/08 01:50:25;;;;;;;3.53;0.50;;;23.00;43.80;;;;;;5047839;28;20037;-55
2022/10/08 01:52:57;;;;;;;0.70;0.22;;;22.90;43.80;;;;;;5052043;28;20416;-56
2022/10/08 01:55:30;;;;;;;5.20;0.20;;;22.90;43.80;;;;;;5066697;28;20101;-56
2022/10/08 01:58:04;;;;;;;0.82;0.13;;;22.90;43.80;;;;;;5042033;28;20041;-56
2022/10/08 02:00:33;;;;;;;1.60;0.95;;;22.90;43.90;;;;;;5053936;28;20033;-55
2022/10/08 02:03:00;;;;;;;0.68;0.20;;;22.90;44.00;;;;;;5062244;28;20098;-55
2022/10/08 02:05:31;;;;;;;3.25;0.13;;;22.90;44.00;;;;;;5066061;28;20509;-56
2022/10/08 02:07:58;;;;;;;0.75;0.10;;;22.90;44.10;;;;;;5050350;28;20045;-52
2022/10/08 02:10:26;;;;;;;0.82;0.10;;;22.90;44.10;;;;;;5071281;28;20053;-56
2022/10/08 02:12:54;;;;;;;2.05;0.10;;;22.90;44.10;;;;;;5071338;28;20131;-57
2022/10/08 02:15:32;;;;;;;0.73;0.10;;;22.90;44.20;;;;;;5071100;28;20040;-53
2022/10/08 02:18:08;;;;;;;1.92;1.23;;;22.90;44.20;;;;;;5048672;28;20120;-55
2022/10/08 02:20:39;;;;;;;2.17;0.10;;;22.90;44.30;;;;;;5066161;28;20049;-52
2022/10/08 02:23:28;;;;;;;1.35;0.10;;;22.90;44.30;;;;;;5071185;28;20044;-55
2022/10/08 02:25:59;;;;;;;1.52;0.20;;;22.90;44.40;;;;;;5065720;28;20076;-54
2022/10/08 02:28:35;;;;;;;2.30;0.10;;;22.90;44.40;;;;;;5051498;28;20432;-55
2022/10/08 02:31:05;;;;;;;;;;;22.90;44.40;;;;;;5067733;28;20076;-54
2022/10/08 02:33:37;;;;;;;2.92;0.10;;;22.80;44.30;;;;;;5069804;28;20113;-53
2022/10/08 02:36:08;;;;;;;1.90;0.10;;;22.80;44.70;;;;;;5056924;28;20036;-54
2022/10/08 02:38:40;;;;;;;0.93;0.10;;;22.80;44.80;;;;;;5068676;28;20132;-55
2022/10/08 02:41:09;;;;;;;1.15;0.10;;;22.80;44.90;;;;;;5052870;28;20045;-53
2022/10/08 02:43:40;;;;;;;0.70;0.10;;;22.80;44.90;;;;;;5054298;28;20037;-55
2022/10/08 02:46:13;;;;;;;0.95;0.10;;;22.80;45.00;;;;;;5053146;28;20072;-55
2022/10/08 02:48:46;;;;;;;2.38;0.10;;;22.80;45.00;;;;;;5044251;28;20131;-55
2022/10/08 02:51:17;;;;;;;2.28;0.32;;;22.80;45.00;;;;;;5064420;28;20123;-52
2022/10/08 02:53:47;;;;;;;0.45;0.10;;;22.80;45.00;;;;;;5062378;28;20044;-56
2022/10/08 02:56:18;;;;;;;0.32;0.20;;;22.80;45.00;;;;;;5050900;28;20037;-56
2022/10/08 02:58:46;;;;;;;3.13;0.10;;;22.80;45.00;;;;;;5050977;28;20130;-53
2022/10/08 03:01:19;;;;;;;0.30;0.00;;;22.80;45.00;;;;;;5058611;28;20037;-56
2022/10/08 03:03:52;;;;;;;1.52;0.10;;;22.90;45.20;;;;;;5070057;28;20080;-55
2022/10/08 03:06:20;;;;;;;1.80;0.15;;;22.90;45.20;;;;;;5066021;28;20045;-54
2022/10/08 03:08:49;;;;;;;2.65;1.35;;;22.80;45.10;;;;;;5063886;28;20045;-54
2022/10/08 03:11:16;;;;;;;3.65;0.10;;;22.80;45.10;;;;;;5050775;28;20060;-55
2022/10/08 03:13:48;;;;;;;1.73;0.10;;;22.80;45.20;;;;;;5050740;28;20056;-56
2022/10/08 03:16:20;;;;;;;1.23;0.10;;;22.80;45.20;;;;;;5050545;28;20064;-54
2022/10/08 03:18:48;;;;;;;0.30;0.00;;;22.80;45.20;;;;;;5050222;28;20044;-57
2022/10/08 03:21:15;;;;;;;1.70;0.35;;;22.80;45.20;;;;;;5049787;28;20041;-55
2022/10/08 03:23:43;;;;;;;2.53;0.08;;;22.80;45.10;;;;;;5068290;28;20053;-56
2022/10/08 03:26:10;;;;;;;0.88;0.10;;;22.80;45.20;;;;;;5064813;28;20041;-57
2022/10/08 03:28:37;;;;;;;1.23;0.10;;;22.80;45.10;;;;;;5061391;28;20051;-54
2022/10/08 03:31:05;;;;;;;0.40;0.10;;;22.80;45.20;;;;;;5068935;28;20036;-56
2022/10/08 03:33:34;;;;;;;1.95;0.70;;;22.80;45.80;;;;;;5052089;28;20084;-56
2022/10/08 03:36:01;;;;;;;0.40;0.10;;;22.80;45.20;;;;;;5050683;28;20131;-56
2022/10/08 03:38:28;;;;;;;2.33;0.63;;;22.80;45.30;;;;;;5068774;28;20124;-56
2022/10/08 03:40:57;;;;;;;1.60;0.10;;;22.80;45.40;;;;;;5065502;28;20045;-56
2022/10/08 03:43:24;;;;;;;1.20;0.10;;;22.80;45.40;;;;;;5049356;28;20474;-55
2022/10/08 03:45:52;;;;;;;0.50;0.10;;;22.70;45.40;;;;;;5049569;28;20833;-54
2022/10/08 03:48:22;;;;;;;1.63;0.10;;;22.80;45.40;;;;;;5054784;28;20045;-54
2022/10/08 03:50:55;;;;;;;2.83;0.88;;;22.80;45.50;;;;;;5050232;28;20041;-57
2022/10/08 03:53:22;;;;;;;0.38;0.00;;;22.80;45.60;;;;;;5056187;28;20137;-55
2022/10/08 03:55:50;;;;;;;1.05;0.25;;;22.70;45.50;;;;;;5050154;28;20477;-55
2022/10/08 03:58:17;;;;;;;2.55;0.10;;;22.70;45.60;;;;;;5050112;28;20083;-54
2022/10/08 04:00:55;;;;;;;1.10;0.20;;;22.70;45.60;;;;;;5061840;28;20528;-54
2022/10/08 04:03:22;;;;;;;2.17;0.45;;;22.70;45.70;;;;;;5069071;28;20052;-53
2022/10/08 04:05:49;;;;;;;4.72;0.30;;;22.70;45.70;;;;;;5068894;28;20041;-57
2022/10/08 04:08:18;;;;;;;0.40;0.10;;;22.80;45.80;;;;;;5061505;28;20474;-57
2022/10/08 04:10:45;;;;;;;1.10;0.10;;;22.70;45.70;;;;;;5045907;28;20037;-53
2022/10/08 04:13:12;;;;;;;0.73;0.10;;;22.70;45.80;;;;;;5041195;28;20056;-52
2022/10/08 04:15:39;;;;;;;0.40;0.10;;;22.70;45.80;;;;;;5052785;28;20048;-55
2022/10/08 04:18:06;;;;;;;0.75;0.10;;;22.70;45.80;;;;;;5049382;28;20052;-53
2022/10/08 04:20:33;;;;;;;1.45;0.55;;;22.70;45.80;;;;;;5049358;28;20496;-54
2022/10/08 04:23:00;;;;;;;0.98;0.17;;;22.70;45.80;;;;;;5061263;28;20123;-54
2022/10/08 04:25:28;;;;;;;1.27;0.10;;;22.70;45.90;;;;;;5062953;28;20055;-56
2022/10/08 04:27:55;;;;;;;0.52;0.20;;;22.70;45.90;;;;;;5064893;28;20045;-54
2022/10/08 04:30:23;;;;;;;2.95;0.13;;;22.70;46.00;;;;;;5067624;28;20040;-55
2022/10/08 04:32:50;;;;;;;2.72;0.10;;;22.70;46.00;;;;;;5058030;28;20071;-56
2022/10/08 04:35:17;;;;;;;2.50;0.47;;;22.70;46.00;;;;;;5065262;28;20048;-55
2022/10/08 04:37:44;;;;;;;1.20;0.10;;;22.70;46.00;;;;;;5056679;28;20150;-55
2022/10/08 04:40:11;;;;;;;0.43;0.28;;;22.60;46.40;;;;;;5051480;28;20044;-55
2022/10/08 04:42:39;;;;;;;2.50;0.25;;;22.70;46.10;;;;;;5050683;28;20424;-56
2022/10/08 04:45:07;;;;;;;0.85;0.10;;;22.70;46.20;;;;;;5047133;28;20052;-53
2022/10/08 04:47:34;;;;;;;0.47;0.10;;;22.60;46.10;;;;;;5051377;28;20037;-56
2022/10/08 04:50:01;;;;;;;3.85;0.10;;;22.60;46.20;;;;;;5047187;28;20398;-55
2022/10/08 04:52:28;;;;;;;0.80;0.30;;;22.60;46.20;;;;;;5047171;28;20140;-55
2022/10/08 04:54:55;;;;;;;2.10;0.10;;;22.60;46.20;;;;;;5051231;28;20120;-56
2022/10/08 04:57:22;;;;;;;0.68;0.20;;;22.60;46.30;;;;;;5049893;28;20044;-53
2022/10/08 04:59:50;;;;;;;6.28;0.20;;;22.70;46.40;;;;;;5041815;28;20044;-50
2022/10/08 05:02:17;;;;;;;1.05;0.10;;;22.60;46.40;;;;;;5048038;28;20120;-54
2022/10/08 05:04:44;;;;;;;2.15;0.10;;;22.70;46.70;;;;;;5059661;28;20044;-51
2022/10/08 05:07:11;;;;;;;1.13;0.20;;;22.70;47.00;;;;;;5049938;28;20037;-54
2022/10/08 05:09:38;;;;;;;23.77;1.85;;;22.70;47.10;;;;;;5040707;28;20043;-55
2022/10/08 05:12:05;;;;;;;2.08;0.10;;;22.70;47.60;;;;;;5048084;28;20130;-54
2022/10/08 05:14:32;;;;;;;3.50;0.43;;;22.80;47.70;;;;;;5060401;28;20149;-53
2022/10/08 05:17:00;;;;;;;3.58;0.20;;;22.90;47.70;;;;;;5062651;28;20037;-57
2022/10/08 05:19:27;;;;;;;2.30;0.55;;;22.90;47.70;;;;;;5055866;28;20036;-54
2022/10/08 05:21:54;;;;;;;5.53;0.17;;;23.00;47.60;;;;;;5058408;28;20041;-55
2022/10/08 05:24:21;;;;;;;2.08;0.30;;;23.20;47.60;;;;;;5052612;28;20123;-55
2022/10/08 05:26:50;;;;;;;1.08;0.10;;;23.20;47.50;;;;;;5047318;28;20076;-54
2022/10/08 05:29:18;;;;;;;2.47;0.17;;;23.30;47.50;;;;;;5061437;28;20063;-55
2022/10/08 05:31:45;;;;;;;1.10;0.10;;;23.50;47.40;;;;;;5049236;28;20088;-52
2022/10/08 05:34:15;;;;;;;3.08;0.28;;;23.60;47.20;;;;;;5048988;28;20050;-52
2022/10/08 05:36:42;;;;;;;1.77;0.20;;;23.70;47.10;;;;;;5046298;28;20068;-51
2022/10/08 05:39:10;;;;;;;0.77;0.10;;;23.80;46.90;;;;;;5049102;28;20033;-54
2022/10/08 05:41:37;;;;;;;0.30;0.20;;;23.80;46.70;;;;;;5041543;28;20520;-54
2022/10/08 05:44:06;;;;;;;3.17;0.20;;;23.90;46.70;;;;;;5054326;28;20051;-52
2022/10/08 05:46:34;;;;;;;2.20;0.10;;;24.00;46.50;;;;;;5043738;28;20045;-55
2022/10/08 05:49:03;;;;;;;2.47;0.10;;;24.10;46.30;;;;;;5047713;28;20029;-54
2022/10/08 05:51:32;;;;;;;1.50;0.25;;;24.20;46.20;;;;;;5065912;28;20036;-56
2022/10/08 05:54:00;;;;;;;0.85;0.20;;;24.30;46.00;;;;;;5061497;28;20055;-55
2022/10/08 05:56:30;;;;;;;0.40;0.10;;;24.40;45.90;;;;;;5057683;28;20132;-53
2022/10/08 05:58:57;;;;;;;1.40;0.30;;;24.50;45.70;;;;;;5051710;28;20056;-54
2022/10/08 06:01:26;;;;;;;1.17;0.10;;;24.60;45.50;;;;;;5049015;28;20044;-59
2022/10/08 06:03:55;;;;;;;1.73;0.85;;;24.60;45.20;;;;;;5046979;28;20041;-56
2022/10/08 06:06:24;;;;;;;1.38;0.30;;;24.80;45.20;;;;;;5058302;28;20094;-57
2022/10/08 06:08:57;;;;;;;3.28;0.20;;;24.90;44.80;;;;;;5060506;28;20033;-55
2022/10/08 06:11:24;;;;;;;1.10;0.43;;;25.10;44.70;;;;;;5058763;28;20037;-52
2022/10/08 06:13:53;;;;;;;0.75;0.10;;;25.20;44.40;;;;;;5047373;28;20120;-55
2022/10/08 06:16:21;;;;;;;0.93;0.10;;;25.20;44.00;;;;;;5056555;28;20040;-51
2022/10/08 06:18:48;;;;;;;0.75;0.40;;;25.30;43.80;;;;;;5049823;28;20052;-53
2022/10/08 06:21:17;;;;;;;2.13;0.10;;;25.30;43.60;;;;;;5059997;28;20120;-51
2022/10/08 06:23:47;;;;;;;3.42;0.35;;;25.30;43.50;;;;;;5056630;28;20036;-50
2022/10/08 06:26:16;;;;;;;2.45;0.70;;;25.30;43.40;;;;;;5061583;28;20135;-56
2022/10/08 06:28:45;;;;;;;2.30;0.30;;;25.20;43.30;;;;;;5055330;28;20036;-52
2022/10/08 06:31:12;;;;;;;0.32;0.10;;;25.20;43.50;;;;;;5059664;28;20064;-58
2022/10/08 06:33:39;;;;;;;1.67;0.20;;;25.20;43.60;;;;;;5041645;28;20432;-57
2022/10/08 06:36:12;;;;;;;1.45;0.63;;;25.10;43.60;;;;;;5058704;28;20056;-55
2022/10/08 06:38:40;;;;;;;0.90;0.10;;;25.10;43.70;;;;;;5058038;28;20037;-53
2022/10/08 06:41:07;;;;;;;0.38;0.10;;;25.10;43.80;;;;;;5047802;28;20045;-56
2022/10/08 06:43:35;;;;;;;2.53;0.05;;;25.10;43.90;;;;;;5047698;28;20048;-53
2022/10/08 06:46:05;;;;;;;2.47;0.25;;;25.00;43.90;;;;;;5057429;28;20501;-50
2022/10/08 06:48:33;;;;;;;1.08;0.10;;;25.00;44.00;;;;;;5045673;28;20106;-57
2022/10/08 06:51:01;;;;;;;4.32;0.20;;;24.90;44.00;;;;;;5042206;28;20059;-59
2022/10/08 06:53:29;;;;;;;0.90;0.10;;;24.90;44.10;;;;;;5051079;28;20056;-59
2022/10/08 06:55:57;;;;;;;5.38;0.20;;;24.90;44.20;;;;;;5058398;28;20490;-53
2022/10/08 06:58:24;;;;;;;0.50;0.17;;;24.80;44.40;;;;;;5052429;28;20044;-48
2022/10/08 07:01:03;;;;;;;2.47;0.20;;;24.80;44.60;;;;;;5046840;28;20064;-49
2022/10/08 07:03:30;;;;;;;3.45;0.20;;;24.80;45.00;;;;;;5053957;28;20041;-54
2022/10/08 07:06:00;;;;;;;2.40;0.20;;;24.60;44.90;;;;;;5051962;28;20051;-50
2022/10/08 07:08:27;;;;;;;3.25;0.20;;;24.60;44.70;;;;;;5051212;28;20065;-52
2022/10/08 07:10:54;;;;;;;3.95;0.38;;;24.60;44.50;;;;;;5050581;28;20033;-52
2022/10/08 07:13:22;;;;;;;3.15;0.43;;;24.60;44.50;;;;;;5061515;28;20119;-50
2022/10/08 07:15:49;;;;;;;6.30;1.50;;;24.60;44.50;;;;;;5063280;28;20040;-51
2022/10/08 07:18:17;;;;;;;4.63;1.30;;;24.60;44.70;;;;;;5061167;28;20059;-52
2022/10/08 07:20:44;;;;;;;7.88;2.20;;;24.70;45.00;;;;;;5058853;28;20033;-49
2022/10/08 07:23:11;;;;;;;90.18;21.25;;;24.70;45.40;;;;;;5061462;28;20098;-48
2022/10/08 07:25:38;;;;;;;41.85;10.48;;;24.70;45.70;;;;;;5064493;28;20041;-60
2022/10/08 07:28:05;;;;;;;43.42;9.60;;;24.70;45.80;;;;;;5060795;28;20132;-54
2022/10/08 07:30:32;;;;;;;36.67;7.82;;;24.70;45.80;;;;;;5049888;28;20040;-53
2022/10/08 07:32:59;;;;;;;30.67;8.98;;;24.70;45.90;;;;;;5055810;28;20045;-58
2022/10/08 07:35:29;;;;;;;24.05;7.22;;;24.80;46.00;;;;;;5051377;28;20123;-59
2022/10/08 07:37:56;;;;;;;28.08;5.95;;;24.80;46.20;;;;;;5053412;28;20045;-60
2022/10/08 07:40:23;;;;;;;21.10;5.50;;;24.80;46.20;;;;;;5055006;28;20032;-52
2022/10/08 07:42:51;;;;;;;18.45;4.00;;;24.80;46.30;;;;;;5050756;28;20512;-51
2022/10/08 07:45:18;;;;;;;16.23;4.68;;;24.80;46.40;;;;;;5051999;28;20041;-50
2022/10/08 07:47:45;;;;;;;19.77;5.38;;;24.80;46.40;;;;;;5052993;28;20521;-54
2022/10/08 07:50:12;;;;;;;11.63;3.92;;;24.80;46.40;;;;;;5051150;28;20041;-53
2022/10/08 07:52:40;;;;;;;10.57;3.05;;;24.80;46.60;;;;;;5056598;28;20033;-49
2022/10/08 07:55:07;;;;;;;26.60;3.17;;;24.70;46.40;;;;;;5062229;28;20509;-51
2022/10/08 07:57:34;;;;;;;13.52;3.58;;;24.80;46.40;;;;;;5061541;28;20123;-52
2022/10/08 08:00:01;;;;;;;9.63;4.35;;;24.80;46.30;;;;;;5068586;28;20504;-52
2022/10/08 08:02:28;;;;;;;12.70;3.65;;;24.80;46.60;;;;;;5054895;28;20084;-51
2022/10/08 08:04:55;;;;;;;24.25;4.25;;;24.80;46.90;;;;;;5067482;28;20050;-47
2022/10/08 08:07:22;;;;;;;13.85;2.08;;;24.70;47.90;;;;;;5052392;28;20525;-48
2022/10/08 08:09:51;;;;;;;11.55;2.45;;;24.70;48.20;;;;;;5065641;28;20048;-48
2022/10/08 08:12:18;;;;;;;6.85;2.10;;;24.60;48.50;;;;;;5050151;28;20133;-48
2022/10/08 08:14:45;;;;;;;10.77;3.03;;;24.60;48.70;;;;;;5049563;28;20048;-48
2022/10/08 08:17:12;;;;;;;14.00;1.85;;;24.50;48.80;;;;;;5049628;28;20049;-49
2022/10/08 08:19:39;;;;;;;12.57;1.63;;;24.50;49.00;;;;;;5050162;28;20041;-47
2022/10/08 08:22:06;;;;;;;14.05;2.28;;;24.40;49.10;;;;;;5049221;28;20056;-50
2022/10/08 08:24:33;;;;;;;9.55;2.08;;;24.40;49.30;;;;;;5049077;28;20041;-52
2022/10/08 08:27:01;;;;;;;4.82;2.42;;;24.40;49.40;;;;;;5059942;28;20043;-47
2022/10/08 08:29:28;;;;;;;10.27;1.42;;;24.40;49.50;;;;;;5048868;28;20045;-47
2022/10/08 08:31:55;;;;;;;7.00;1.73;;;24.40;49.60;;;;;;5049299;28;20052;-48
2022/10/08 08:34:24;;;;;;;8.55;2.03;;;24.30;49.50;;;;;;5062584;28;20045;-47
2022/10/08 08:36:53;;;;;;;4.72;1.02;;;24.30;49.50;;;;;;5058975;28;20068;-49
2022/10/08 08:39:22;;;;;;;7.00;1.38;;;24.30;49.30;;;;;;5060537;28;20037;-47
2022/10/08 08:42:04;;;;;;;8.77;1.23;;;24.30;49.10;;;;;;5055983;28;20047;-48
2022/10/08 08:44:34;;;;;;;9.35;1.08;;;24.30;49.20;;;;;;5063112;28;20052;-48
2022/10/08 08:47:05;;;;;;;6.47;1.67;;;24.20;49.00;;;;;;5068302;28;20068;-47
2022/10/08 08:49:37;;;;;;;1.92;0.93;;;24.20;48.90;;;;;;5051070;28;20145;-48
2022/10/08 08:52:06;;;;;;;4.78;1.10;;;24.20;48.80;;;;;;5060005;28;20052;-47
2022/10/08 08:54:33;;;;;;;5.53;0.88;;;24.20;48.80;;;;;;5054795;28;20044;-48
2022/10/08 08:57:12;;;;;;;6.80;0.82;;;24.20;48.70;;;;;;5051746;28;20501;-49
2022/10/08 08:59:44;;;;;;;5.40;1.05;;;24.20;48.40;;;;;;5047078;28;20749;-49
2022/10/08 09:02:22;;;;;;;4.15;0.52;;;24.20;48.50;;;;;;5048062;28;20037;-47
2022/10/08 09:04:54;;;;;;;2.22;0.63;;;24.10;48.40;;;;;;5054034;28;20045;-47
2022/10/08 09:07:26;;;;;;;4.32;0.50;;;24.10;48.40;;;;;;5048480;28;20102;-49
2022/10/08 09:09:59;;;;;;;7.90;0.57;;;24.10;48.30;;;;;;5067716;28;20067;-48
2022/10/08 09:12:32;;;;;;;2.60;0.55;;;24.10;48.00;;;;;;5067521;28;20526;-49
2022/10/08 09:15:02;;;;;;;3.53;0.60;;;24.10;47.90;;;;;;5067856;28;20045;-47
2022/10/08 09:17:32;;;;;;;9.93;2.40;;;24.10;47.70;;;;;;5058622;28;20052;-48
2022/10/08 09:20:00;;;;;;;3.10;0.55;;;24.10;47.60;;;;;;5058106;28;20063;-47
2022/10/08 09:22:29;;;;;;;3.08;0.35;;;24.10;47.60;;;;;;5067510;28;20127;-49
2022/10/08 09:24:59;;;;;;;4.78;0.57;;;24.10;47.50;;;;;;5045474;28;20047;-49
2022/10/08 09:27:43;;;;;;;2.70;0.15;;;24.10;47.60;;;;;;5052482;28;20039;-50
2022/10/08 09:30:27;;;;;;;3.85;0.90;;;24.10;47.40;;;;;;5064152;28;20037;-47
2022/10/08 09:32:56;;;;;;;3.80;0.65;;;24.10;47.30;;;;;;5062556;28;20041;-47
2022/10/08 09:35:24;;;;;;;4.53;0.95;;;24.10;47.40;;;;;;5049295;28;20525;-47
2022/10/08 09:37:51;;;;;;;7.25;0.30;;;24.10;47.20;;;;;;5067406;28;20441;-48
2022/10/08 09:40:21;;;;;;;3.45;0.10;;;24.10;47.00;;;;;;5066820;28;20547;-48
2022/10/08 09:43:11;;;;;;;1.65;0.30;;;24.10;46.80;;;;;;5049300;28;20116;-47
2022/10/08 09:45:42;;;;;;;4.07;0.90;;;24.10;46.80;;;;;;5067499;28;20127;-47
2022/10/08 09:48:21;;;;;;;2.83;0.30;;;24.10;46.80;;;;;;5061025;28;20055;-48
2022/10/08 09:50:52;;;;;;;0.90;0.30;;;24.10;46.70;;;;;;5048519;28;20040;-49
2022/10/08 09:53:21;;;;;;;2.58;0.20;;;24.10;46.60;;;;;;5063295;28;20481;-50
2022/10/08 09:55:55;;;;;;;4.57;0.82;;;24.10;46.60;;;;;;5066732;28;20048;-51
2022/10/08 09:58:22;;;;;;;3.70;0.47;;;24.10;46.50;;;;;;5066423;28;20051;-47
2022/10/08 10:01:03;;;;;;;1.90;0.43;;;24.10;46.50;;;;;;5065376;28;20044;-47
2022/10/08 10:03:31;;;;;;;3.53;0.22;;;24.10;46.40;;;;;;5062555;28;20037;-48
2022/10/08 10:05:59;;;;;;;0.95;0.10;;;24.10;46.20;;;;;;5046207;28;20049;-52
2022/10/08 10:08:49;;;;;;;2.25;0.20;;;24.10;46.10;;;;;;5053753;28;20072;-49
2022/10/08 10:11:24;;;;;;;2.05;0.17;;;24.20;46.00;;;;;;5047279;28;20064;-48
2022/10/08 10:13:51;;;;;;;1.63;0.22;;;24.20;46.10;;;;;;5054663;28;20523;-48
2022/10/08 10:16:23;;;;;;;3.20;0.13;;;24.20;46.00;;;;;;5052566;28;20063;-48
2022/10/08 10:18:57;;;;;;;4.18;0.20;;;24.20;46.20;;;;;;5047609;28;20114;-49
2022/10/08 10:21:34;;;;;;;3.05;0.10;;;24.20;45.80;;;;;;5049952;28;20071;-47
2022/10/08 10:24:20;;;;;;;3.50;0.75;;;24.30;45.70;;;;;;5067009;28;20067;-49
2022/10/08 10:26:48;;;;;;;5.85;0.35;;;24.30;45.70;;;;;;5041145;28;20049;-48
2022/10/08 10:29:19;;;;;;;1.45;0.25;;;24.30;45.60;;;;;;5043022;28;20033;-53
2022/10/08 10:31:53;;;;;;;2.72;0.10;;;24.30;45.60;;;;;;5051432;28;20073;-50
2022/10/08 10:34:23;;;;;;;1.95;0.20;;;24.40;45.60;;;;;;5050881;28;20053;-51
2022/10/08 10:36:54;;;;;;;0.90;0.20;;;24.40;45.60;;;;;;5050627;28;20446;-49
2022/10/08 10:39:30;;;;;;;6.68;0.20;;;24.40;45.60;;;;;;5052725;28;20048;-48
2022/10/08 10:42:07;;;;;;;1.98;0.10;;;24.40;45.40;;;;;;5053221;28;20068;-48
2022/10/08 10:44:46;;;;;;;2.20;0.20;;;24.40;45.30;;;;;;5065050;28;20045;-51
2022/10/08 10:47:15;;;;;;;5.25;0.82;;;24.40;45.10;;;;;;5069734;28;20049;-49
2022/10/08 10:49:43;;;;;;;2.33;0.47;;;24.40;44.90;;;;;;5052524;28;20133;-50
2022/10/08 10:52:30;;;;;;;4.85;0.77;;;24.40;44.80;;;;;;5065059;28;20049;-50
2022/10/08 10:55:18;;;;;;;5.65;0.30;;;24.50;44.70;;;;;;5067493;28;20151;-52
2022/10/08 10:58:05;;;;;;;2.90;0.28;;;24.50;44.70;;;;;;5067816;28;20798;-51
2022/10/08 11:00:42;;;;;;;2.25;1.13;;;24.50;44.80;;;;;;5045205;28;20192;-49
2022/10/08 11:03:20;;;;;;;3.10;0.17;;;24.50;44.50;;;;;;5050397;28;20048;-50
2022/10/08 11:05:52;;;;;;;3.80;0.47;;;24.50;44.50;;;;;;5066775;28;20058;-49
2022/10/08 11:08:30;;;;;;;4.20;0.28;;;24.50;44.30;;;;;;5069573;28;20045;-49
2022/10/08 11:11:16;;;;;;;1.48;0.30;;;24.60;44.20;;;;;;5069930;28;20128;-49
2022/10/08 11:13:55;;;;;;;4.07;0.30;;;24.60;44.00;;;;;;5054168;28;20040;-48
2022/10/08 11:16:37;;;;;;;1.70;0.10;;;24.50;44.60;;;;;;5069565;28;20385;-48
2022/10/08 11:19:15;;;;;;;1.85;0.20;;;24.60;44.30;;;;;;5053227;28;20049;-48
2022/10/08 11:21:54;;;;;;;1.05;0.20;;;24.60;44.30;;;;;;5050166;28;20075;-48
2022/10/08 11:25:06;;;;;;;2.13;0.40;;;24.60;44.20;;;;;;5046773;28;20043;-48
2022/10/08 11:27:42;;;;;;;7.55;0.35;;;24.60;44.10;;;;;;5057679;28;20039;-48
2022/10/08 11:30:13;;;;;;;0.80;0.22;;;24.60;44.40;;;;;;5069438;28;20059;-48
2022/10/08 11:32:42;;;;;;;1.65;0.10;;;24.60;44.40;;;;;;5069513;28;20416;-49
2022/10/08 11:35:24;;;;;;;2.83;0.40;;;24.70;44.70;;;;;;5068855;28;20044;-48
2022/10/08 11:37:58;;;;;;;1.40;0.10;;;24.70;44.90;;;;;;5068602;28;20123;-50
2022/10/08 11:40:31;;;;;;;4.13;0.38;;;24.70;45.00;;;;;;5068098;28;20505;-49
2022/10/08 11:43:05;;;;;;;1.15;0.10;;;24.80;44.80;;;;;;5069095;28;20040;-49
2022/10/08 11:45:35;;;;;;;1.63;0.10;;;24.80;44.90;;;;;;5044317;28;20047;-50
2022/10/08 11:48:32;;;;;;;2.38;0.10;;;24.80;44.90;;;;;;5050050;28;20044;-48
2022/10/08 11:51:18;;;;;;;;;;;24.90;44.90;;;;;;5068039;28;20495;-49
2022/10/08 11:54:02;;;;;;;2.72;0.10;;;24.80;44.80;;;;;;5068169;28;19920;-48
2022/10/08 11:56:31;;;;;;;1.20;0.10;;;24.90;44.90;;;;;;5066664;28;20122;-47
2022/10/08 11:59:09;;;;;;;2.55;0.32;;;24.90;45.40;;;;;;5054444;28;20041;-47
2022/10/08 12:01:53;;;;;;;1.77;0.10;;;24.90;44.70;;;;;;5054112;28;20568;-49
2022/10/08 12:04:22;;;;;;;1.38;0.10;;;25.00;44.60;;;;;;5045172;28;20060;-51
2022/10/08 12:07:02;;;;;;;1.05;0.10;;;24.90;44.50;;;;;;5043543;28;20139;-47
2022/10/08 12:10:01;;;;;;;4.13;0.45;;;25.00;44.50;;;;;;5048266;28;20077;-53
2022/10/08 12:13:02;;;;;;;0.40;0.20;;;25.00;44.40;;;;;;5049241;28;20132;-47
2022/10/08 12:15:48;;;;;;;1.75;0.20;;;25.10;44.20;;;;;;5053214;28;20044;-48
2022/10/08 12:18:47;;;;;;;0.45;0.10;;;25.10;44.10;;;;;;5049451;28;20033;-48
2022/10/08 12:21:54;;;;;;;0.10;0.08;;;25.20;44.10;;;;;;5050983;28;20075;-48
2022/10/08 12:24:55;;;;;;;4.18;0.75;;;25.20;44.10;;;;;;5049283;28;20086;-51
2022/10/08 12:27:29;;;;;;;4.40;0.38;;;25.20;44.00;;;;;;5049312;28;20049;-49
2022/10/08 12:29:58;;;;;;;1.80;0.43;;;25.20;43.90;;;;;;5061713;28;20078;-48
2022/10/08 12:32:27;;;;;;;1.55;0.10;;;25.30;43.90;;;;;;5066770;28;20485;-50
2022/10/08 12:34:54;;;;;;;0.38;0.00;;;25.30;43.80;;;;;;5050467;28;20732;-48
2022/10/08 12:37:52;;;;;;;3.10;0.10;;;25.30;43.80;;;;;;5067944;28;20037;-49
2022/10/08 12:40:30;;;;;;;0.22;0.10;;;25.40;43.70;;;;;;5068188;28;20504;-47
2022/10/08 12:43:13;;;;;;;0.98;0.10;;;25.40;43.70;;;;;;5057728;28;20480;-47
2022/10/08 12:45:48;;;;;;;0.63;0.63;;;25.50;43.80;;;;;;5047939;28;20049;-48
2022/10/08 12:48:22;;;;;;;0.97;0.10;;;25.50;43.60;;;;;;5061155;28;20128;-47
2022/10/08 12:50:58;;;;;;;0.45;0.10;;;25.50;43.70;;;;;;5057856;28;20077;-47
2022/10/08 12:53:25;;;;;;;0.85;0.32;;;25.50;43.60;;;;;;5055042;28;20043;-48
2022/10/08 12:55:55;;;;;;;2.05;0.08;;;25.60;43.70;;;;;;5066947;28;20036;-48
2022/10/08 12:58:28;;;;;;;0.80;0.10;;;25.60;43.60;;;;;;5063648;28;20048;-48
2022/10/08 13:00:58;;;;;;;1.73;0.10;;;25.70;43.60;;;;;;5068128;28;20044;-47
2022/10/08 13:03:25;;;;;;;0.82;0.10;;;25.70;43.50;;;;;;5067522;28;20124;-48
2022/10/08 13:05:54;;;;;;;0.22;0.10;;;25.70;43.40;;;;;;5064152;28;20045;-47
2022/10/08 13:08:29;;;;;;;1.67;0.47;;;25.70;43.80;;;;;;5067669;28;20068;-48
2022/10/08 13:10:57;;;;;;;0.13;0.00;;;25.80;43.30;;;;;;5063051;28;20043;-49